createdAt,value
2022-10-23T00:02:46.534Z,1017.80
2022-10-23T00:07:53.287Z,1017.73
2022-10-23T00:13:00.410Z,1017.61
2022-10-23T00:18:07.573Z,1017.55
2022-10-23T00:23:14.808Z,1017.64
2022-10-23T00:28:21.978Z,1017.62
2022-10-23T00:33:29.157Z,1017.68
2022-10-23T00:38:36.411Z,1017.70
2022-10-23T00:43:43.618Z,1017.74
2022-10-23T00:48:50.844Z,1017.67
2022-10-23T00:54:06.482Z,1017.56
2022-10-23T00:59:05.319Z,1017.56
2022-10-23T01:04:12.517Z,1017.43
2022-10-23T01:09:19.688Z,1017.48
2022-10-23T01:14:27.040Z,1017.46
2022-10-23T01:19:34.208Z,1017.52
2022-10-23T01:24:41.683Z,1017.48
2022-10-23T01:29:48.848Z,1017.44
2022-10-23T01:34:56.078Z,1017.48
2022-10-23T01:40:03.307Z,1017.43
2022-10-23T01:45:10.532Z,1017.39
2022-10-23T01:50:17.790Z,1017.36
2022-10-23T01:55:25.061Z,1017.29
2022-10-23T02:00:32.304Z,1017.16
2022-10-23T02:05:39.509Z,1017.13
2022-10-23T02:10:46.733Z,1017.19
2022-10-23T02:15:53.922Z,1017.07
2022-10-23T02:21:01.221Z,1017.18
2022-10-23T02:26:08.446Z,1017.13
2022-10-23T02:31:15.606Z,1017.04
2022-10-23T02:36:22.783Z,1016.86
2022-10-23T02:41:30.063Z,1016.92
2022-10-23T02:46:37.228Z,1016.85
2022-10-23T02:51:44.384Z,1016.91
2022-10-23T02:56:51.639Z,1016.71
2022-10-23T03:01:58.987Z,1016.74
2022-10-23T03:07:06.091Z,1016.70
2022-10-23T03:12:13.294Z,1016.68
2022-10-23T03:17:20.468Z,1016.60
2022-10-23T03:22:27.692Z,1016.62
2022-10-23T03:27:34.860Z,1016.55
2022-10-23T03:32:42.446Z,1016.56
2022-10-23T03:37:49.246Z,1016.60
2022-10-23T03:42:56.506Z,1016.59
2022-10-23T03:48:03.661Z,1016.49
2022-10-23T03:53:10.830Z,1016.49
2022-10-23T03:58:18.027Z,1016.48
2022-10-23T04:03:25.244Z,1016.40
2022-10-23T04:08:32.397Z,1016.47
2022-10-23T04:13:39.595Z,1016.43
2022-10-23T04:18:46.735Z,1016.44
2022-10-23T04:23:53.910Z,1016.40
2022-10-23T04:29:01.090Z,1016.36
2022-10-23T04:34:08.317Z,1016.30
2022-10-23T04:39:15.524Z,1016.25
2022-10-23T04:44:22.773Z,1016.26
2022-10-23T04:49:29.912Z,1016.21
2022-10-23T04:54:37.161Z,1016.21
2022-10-23T04:59:44.453Z,1016.25
2022-10-23T05:04:51.666Z,1016.10
2022-10-23T05:09:58.852Z,1016.02
2022-10-23T05:15:06.112Z,1016.04
2022-10-23T05:20:13.380Z,1015.87
2022-10-23T05:25:20.600Z,1015.91
2022-10-23T05:30:27.800Z,1015.79
2022-10-23T05:35:35.000Z,1015.91
2022-10-23T05:40:42.193Z,1015.80
2022-10-23T05:45:49.406Z,1015.90
2022-10-23T05:50:56.609Z,1015.78
2022-10-23T05:56:03.884Z,1015.84
2022-10-23T06:01:11.272Z,1015.93
2022-10-23T06:06:18.403Z,1015.86
2022-10-23T06:11:25.653Z,1015.91
2022-10-23T06:16:32.891Z,1015.83
2022-10-23T06:21:40.037Z,1015.95
2022-10-23T06:26:47.266Z,1016.07
2022-10-23T06:31:54.489Z,1016.23
2022-10-23T06:37:01.664Z,1016.21
2022-10-23T06:42:08.868Z,1016.16
2022-10-23T06:52:42.101Z,1016.19
2022-10-23T06:57:30.481Z,1016.22
2022-10-23T07:02:37.701Z,1016.28
2022-10-23T07:07:44.891Z,1016.29
2022-10-23T07:12:52.087Z,1016.44
2022-10-23T07:17:59.284Z,1016.41
2022-10-23T07:23:06.489Z,1016.44
2022-10-23T07:28:13.691Z,1016.39
2022-10-23T07:33:20.969Z,1016.31
2022-10-23T07:38:28.114Z,1016.23
2022-10-23T07:43:35.317Z,1016.25
2022-10-23T07:48:42.536Z,1016.25
2022-10-23T07:53:49.727Z,1016.22
2022-10-23T07:58:56.924Z,1016.24
2022-10-23T08:04:04.117Z,1016.23
2022-10-23T08:09:11.263Z,1016.28
2022-10-23T08:14:18.538Z,1016.29
2022-10-23T08:19:25.692Z,1016.07
2022-10-23T08:24:32.824Z,1016.16
2022-10-23T08:29:40.064Z,1016.01
2022-10-23T08:34:47.273Z,1015.87
2022-10-23T08:39:54.498Z,1015.84
2022-10-23T08:45:01.691Z,1015.71
2022-10-23T08:50:08.897Z,1015.66
2022-10-23T08:55:16.076Z,1015.61
2022-10-23T09:00:23.283Z,1015.53
2022-10-23T09:05:30.525Z,1015.66
2022-10-23T09:10:37.703Z,1015.56
2022-10-23T09:15:46.181Z,1015.51
2022-10-23T09:20:53.448Z,1015.51
2022-10-23T09:26:00.659Z,1015.29
2022-10-23T09:31:11.018Z,1015.21
2022-10-23T09:36:15.800Z,1015.21
2022-10-23T09:41:22.977Z,1015.08
2022-10-23T09:46:30.274Z,1015.12
2022-10-23T09:51:37.552Z,1015.14
2022-10-23T09:56:44.777Z,1015.21
2022-10-23T10:01:52.121Z,1015.21
2022-10-23T10:06:59.248Z,1015.14
2022-10-23T10:12:06.607Z,1015.16
2022-10-23T10:17:13.816Z,1015.20
2022-10-23T10:22:21.068Z,1015.22
2022-10-23T10:27:28.204Z,1015.13
2022-10-23T10:32:35.422Z,1014.99
2022-10-23T10:37:44.845Z,1014.97
2022-10-23T10:42:49.789Z,1014.86
2022-10-23T10:47:56.924Z,1014.85
2022-10-23T10:53:04.154Z,1014.76
2022-10-23T10:58:11.288Z,1014.82
2022-10-23T11:03:18.476Z,1014.65
2022-10-23T11:08:25.673Z,1014.61
2022-10-23T11:13:32.851Z,1014.54
2022-10-23T11:18:40.051Z,1014.40
2022-10-23T11:23:47.255Z,1014.27
2022-10-23T11:28:54.403Z,1014.04
2022-10-23T11:34:01.568Z,1014.12
2022-10-23T11:39:09.001Z,1013.95
2022-10-23T11:44:16.278Z,1013.85
2022-10-23T11:49:23.597Z,1013.97
2022-10-23T11:54:31.059Z,1013.86
2022-10-23T11:59:38.220Z,1013.91
2022-10-23T12:04:45.428Z,1013.78
2022-10-23T12:09:52.938Z,1013.79
2022-10-23T12:15:00.155Z,1013.68
2022-10-23T12:20:07.343Z,1013.50
2022-10-23T12:25:14.658Z,1013.39
2022-10-23T12:30:21.855Z,1013.40
2022-10-23T12:35:29.253Z,1013.41
2022-10-23T12:40:36.585Z,1013.32
2022-10-23T12:45:43.785Z,1013.29
2022-10-23T12:50:51.270Z,1013.20
2022-10-23T13:01:05.905Z,1013.40
2022-10-23T13:06:12.989Z,1013.49
2022-10-23T13:11:20.425Z,1013.35
2022-10-23T13:16:27.727Z,1013.16
2022-10-23T13:21:35.172Z,1013.10
2022-10-23T13:26:42.901Z,1013.27
2022-10-23T13:31:50.443Z,1013.27
2022-10-23T13:36:57.778Z,1013.29
2022-10-23T13:42:05.050Z,1013.23
2022-10-23T13:47:12.339Z,1013.16
2022-10-23T13:52:19.768Z,1013.03
2022-10-23T13:57:27.023Z,1013.04
2022-10-23T14:02:34.288Z,1013.05
2022-10-23T14:07:41.816Z,1013.06
2022-10-23T14:12:48.770Z,1013.03
2022-10-23T14:17:59.482Z,1013.04
2022-10-23T14:23:04.444Z,1012.97
2022-10-23T14:28:11.994Z,1013.06
2022-10-23T14:33:19.374Z,1013.07
2022-10-23T14:38:26.889Z,1013.01
2022-10-23T14:43:34.356Z,1012.89
2022-10-23T14:48:45.434Z,1012.97
2022-10-23T14:53:49.220Z,1012.90
2022-10-23T14:58:56.664Z,1012.86
2022-10-23T15:04:04.127Z,1012.79
2022-10-23T15:09:11.744Z,1012.82
2022-10-23T15:14:19.986Z,1012.71
2022-10-23T15:19:27.373Z,1012.76
2022-10-23T15:24:34.808Z,1012.85
2022-10-23T15:29:42.009Z,1012.82
2022-10-23T15:34:49.251Z,1012.86
2022-10-23T15:39:58.403Z,1012.85
2022-10-23T15:45:03.724Z,1012.79
2022-10-23T15:50:10.952Z,1012.89
2022-10-23T15:55:18.531Z,1013.26
2022-10-23T16:00:25.924Z,1013.31
2022-10-23T16:05:33.041Z,1013.36
2022-10-23T16:10:40.380Z,1013.49
2022-10-23T16:15:47.644Z,1013.62
2022-10-23T16:20:54.881Z,1013.66
2022-10-23T16:26:02.091Z,1013.70
2022-10-23T16:31:09.395Z,1013.87
2022-10-23T16:36:16.600Z,1014.00
2022-10-23T16:41:24.082Z,1014.19
2022-10-23T16:46:31.623Z,1014.21
2022-10-23T16:51:39.018Z,1014.18
2022-10-23T16:56:46.725Z,1014.13
2022-10-23T17:01:54.488Z,1014.07
2022-10-23T17:07:01.948Z,1014.26
2022-10-23T17:12:09.667Z,1014.17
2022-10-23T17:17:17.310Z,1014.05
2022-10-23T17:22:24.896Z,1014.15
2022-10-23T17:27:32.534Z,1013.98
2022-10-23T17:32:40.152Z,1013.82
2022-10-23T17:37:47.692Z,1013.86
2022-10-23T17:42:55.249Z,1013.68
2022-10-23T17:48:02.891Z,1013.62
2022-10-23T17:53:10.987Z,1013.46
2022-10-23T17:58:18.399Z,1013.44
2022-10-23T18:03:26.249Z,1013.45
2022-10-23T18:08:33.737Z,1013.45
2022-10-23T18:13:41.350Z,1013.47
2022-10-23T18:18:48.984Z,1013.39
2022-10-23T18:23:56.678Z,1013.23
2022-10-23T18:29:04.010Z,1013.17
2022-10-23T18:34:11.522Z,1013.25
2022-10-23T18:39:19.064Z,1013.19
2022-10-23T18:44:27.233Z,1013.15
2022-10-23T18:49:37.029Z,1013.00
2022-10-23T18:54:46.359Z,1012.99
2022-10-23T18:59:53.922Z,1013.04
2022-10-23T19:05:01.610Z,1013.13
2022-10-23T19:10:09.302Z,1013.25
2022-10-23T19:15:17.019Z,1013.28
2022-10-23T19:20:24.520Z,1013.31
2022-10-23T19:25:31.947Z,1013.48
2022-10-23T19:30:39.561Z,1013.62
2022-10-23T19:35:47.297Z,1014.24
2022-10-23T19:40:54.897Z,1014.74
2022-10-23T19:46:04.972Z,1015.36
2022-10-23T19:51:10.245Z,1015.80
2022-10-23T19:56:17.934Z,1015.96
2022-10-23T20:01:25.817Z,1016.08
2022-10-23T20:06:33.698Z,1016.13
2022-10-23T20:11:41.000Z,1016.14
2022-10-23T20:16:51.134Z,1015.99
2022-10-23T20:21:56.132Z,1015.90
2022-10-23T20:27:03.470Z,1016.05
2022-10-23T20:32:10.713Z,1016.06
2022-10-23T20:37:18.157Z,1016.18
2022-10-23T20:42:25.378Z,1016.19
2022-10-23T20:47:32.579Z,1016.35
2022-10-23T20:52:39.797Z,1016.53
2022-10-23T20:57:47.230Z,1016.51
2022-10-23T21:02:54.624Z,1016.64
2022-10-23T21:08:01.692Z,1016.70
2022-10-23T21:13:08.984Z,1016.58
2022-10-23T21:18:26.519Z,1016.43
2022-10-23T21:23:23.443Z,1016.46
2022-10-23T21:28:30.664Z,1016.77
2022-10-23T21:33:37.862Z,1016.95
2022-10-23T21:38:45.028Z,1016.84
2022-10-23T21:43:52.225Z,1016.91
2022-10-23T21:48:59.441Z,1016.86
2022-10-23T21:54:06.645Z,1016.93
2022-10-23T21:59:13.851Z,1016.98
2022-10-23T22:04:21.075Z,1016.75
2022-10-23T22:09:28.358Z,1016.78
2022-10-23T22:14:35.538Z,1017.01
2022-10-23T22:19:42.745Z,1017.06
2022-10-23T22:24:49.930Z,1017.13
2022-10-23T22:29:57.372Z,1017.01
2022-10-23T22:35:04.624Z,1017.10
2022-10-23T22:40:11.827Z,1016.83
2022-10-23T22:45:18.980Z,1016.95
2022-10-23T22:50:26.251Z,1017.07
2022-10-23T22:55:33.526Z,1017.17
2022-10-23T23:00:42.903Z,1017.07
2022-10-23T23:05:47.924Z,1017.06
2022-10-23T23:10:55.128Z,1017.03
2022-10-23T23:16:02.311Z,1017.10
2022-10-23T23:21:09.476Z,1017.07
2022-10-23T23:26:16.738Z,1017.28
2022-10-23T23:31:23.904Z,1017.37
2022-10-23T23:36:31.056Z,1017.33
2022-10-23T23:41:38.251Z,1016.95
2022-10-23T23:46:45.739Z,1016.84
2022-10-23T23:51:52.956Z,1016.88
2022-10-23T23:57:00.198Z,1017.01
